Time;durP1;ratioP1;P1;durP2;ratioP2;P2;SDS_P1;SDS_P2;PMS_P1;PMS_P2;Temp;Humidity;BMP_temperature;BMP_pressure;BME280_temperature;BME280_humidity;BME280_pressure;Samples;Min_cycle;Max_cycle;Signal;HPM_P1;HPM_P2
2024/04/07 00:07:57;;;;;;;3.72;1.58;;;17.20;1.00;;;;;;20831471;28;20041;-42
2024/04/07 00:17:57;;;;;;;10.57;2.15;;;17.00;1.00;;;;;;20830489;28;20632;-42
2024/04/07 00:27:58;;;;;;;7.35;1.83;;;16.80;1.00;;;;;;20827675;28;20053;-42
2024/04/07 00:37:59;;;;;;;5.72;1.65;;;16.80;1.00;;;;;;20827172;28;20103;-42
2024/04/07 00:48:00;;;;;;;7.17;1.80;;;16.90;1.00;;;;;;20827098;28;20033;-42
2024/04/07 00:58:01;;;;;;;7.43;1.88;;;17.10;1.00;;;;;;20826199;28;20075;-42
2024/04/07 01:08:01;;;;;;;5.75;1.65;;;17.00;1.00;;;;;;20826435;28;20035;-42
2024/04/07 01:18:05;;;;;;;6.93;2.00;;;17.30;1.00;;;;;;20822443;28;20044;-42
2024/04/07 01:28:06;;;;;;;8.38;1.70;;;17.20;1.00;;;;;;20826344;28;20033;-42
2024/04/07 01:38:06;;;;;;;6.38;1.45;;;16.90;1.00;;;;;;20830941;28;20412;-42
2024/04/07 01:48:07;;;;;;;6.05;1.40;;;16.60;1.00;;;;;;20829187;28;20249;-42
2024/04/07 01:58:08;;;;;;;5.57;1.60;;;16.40;1.00;;;;;;20829457;28;20332;-42
2024/04/07 02:08:08;;;;;;;4.25;1.20;;;16.20;1.00;;;;;;20840864;28;20038;-42
2024/04/07 02:18:09;;;;;;;2.63;1.42;;;15.90;1.00;;;;;;20846108;28;20370;-42
2024/04/07 02:28:10;;;;;;;3.80;0.90;;;15.70;1.00;;;;;;20843023;28;20029;-42
2024/04/07 02:38:11;;;;;;;3.57;0.90;;;15.40;1.00;;;;;;21840611;22;20045;-85
2024/04/07 02:48:11;;;;;;;3.33;0.90;;;15.00;1.00;;;;;;20861254;28;20029;-86
2024/04/07 02:58:12;;;;;;;4.55;1.08;;;14.90;1.00;;;;;;20854487;28;20455;-85
2024/04/07 03:08:12;;;;;;;3.50;0.70;;;14.90;1.00;;;;;;20860108;28;20905;-86
2024/04/07 03:18:13;;;;;;;4.00;1.08;;;14.90;1.00;;;;;;20851142;28;20041;-86
2024/04/07 03:28:13;;;;;;;4.05;0.90;;;15.00;1.00;;;;;;20850234;28;20033;-87
2024/04/07 03:38:14;;;;;;;3.15;0.80;;;15.00;1.00;;;;;;20853625;28;20067;-86
2024/04/07 03:48:15;;;;;;;2.75;0.70;;;15.00;1.00;;;;;;20846702;28;20392;-82
2024/04/07 03:58:15;;;;;;;6.43;0.80;;;15.00;1.00;;;;;;20840407;28;20392;-81
2024/04/07 04:08:16;;;;;;;5.22;0.60;;;15.00;1.00;;;;;;20847085;28;20040;-83
2024/04/07 04:18:16;;;;;;;3.10;0.47;;;15.00;1.00;;;;;;20846787;28;20380;-81
2024/04/07 04:28:17;;;;;;;4.22;0.40;;;15.10;1.00;;;;;;20874431;28;20037;-85
2024/04/07 04:38:18;;;;;;;1.83;0.40;;;15.10;1.00;;;;;;20889894;28;20040;-85
2024/04/07 04:48:19;;;;;;;1.80;0.40;;;15.10;1.00;;;;;;20889241;28;20072;-78
2024/04/07 04:58:19;;;;;;;1.48;0.40;;;15.10;1.00;;;;;;20851881;28;20140;-84
2024/04/07 05:08:20;;;;;;;2.25;0.65;;;15.00;1.00;;;;;;20841445;28;20033;-85
2024/04/07 05:18:21;;;;;;;2.88;0.40;;;15.00;1.00;;;;;;20847103;28;20523;-85
2024/04/07 05:28:21;;;;;;;6.43;0.80;;;15.00;1.00;;;;;;20846255;28;20033;-85
2024/04/07 05:38:22;;;;;;;3.50;0.82;;;15.00;1.00;;;;;;20844501;28;20117;-85
2024/04/07 05:48:23;;;;;;;3.42;0.47;;;15.00;1.00;;;;;;20842066;28;20033;-85
2024/04/07 05:58:24;;;;;;;2.88;0.63;;;14.80;1.00;;;;;;20844684;28;20049;-85
2024/04/07 06:08:25;;;;;;;2.92;0.88;;;14.80;1.00;;;;;;20844328;28;20120;-84
2024/04/07 06:18:25;;;;;;;1.55;0.38;;;14.80;1.00;;;;;;20838353;28;20049;-83
2024/04/07 06:28:26;;;;;;;4.38;0.55;;;14.70;1.00;;;;;;20833087;28;20577;-81
2024/04/07 06:38:27;;;;;;;4.18;0.60;;;14.80;1.00;;;;;;20836740;28;20045;-81
2024/04/07 06:48:28;;;;;;;3.10;0.70;;;15.00;1.00;;;;;;20840649;28;20528;-82
2024/04/07 06:58:31;;;;;;;2.30;0.60;;;15.20;1.00;;;;;;20840292;28;20412;-81
2024/04/07 07:08:32;;;;;;;2.47;0.70;;;15.50;1.00;;;;;;20838976;28;20462;-87
2024/04/07 07:18:32;;;;;;;5.35;0.85;;;15.90;1.00;;;;;;20836593;28;20051;-83
2024/04/07 07:28:36;;;;;;;4.07;0.80;;;16.10;1.00;;;;;;20843280;28;20038;-90
2024/04/07 07:38:37;;;;;;;4.03;0.98;;;16.20;1.00;;;;;;20854701;28;20083;-86
2024/04/07 07:48:39;;;;;;;2.50;0.80;;;16.30;1.00;;;;;;20854931;28;20041;-87
2024/04/07 07:58:41;;;;;;;6.50;1.52;;;16.50;1.00;;;;;;20852671;28;20044;-89
2024/04/07 08:08:41;;;;;;;5.07;0.90;;;16.60;1.00;;;;;;20858676;28;20099;-94
2024/04/07 08:18:42;;;;;;;3.80;0.90;;;16.90;1.00;;;;;;20846906;28;20053;-91
2024/04/07 08:28:42;;;;;;;2.92;0.90;;;17.00;1.00;;;;;;20857183;28;20032;-87
2024/04/07 08:38:43;;;;;;;3.83;0.80;;;17.10;1.00;;;;;;20857164;28;20041;-85
2024/04/07 08:48:50;;;;;;;4.55;0.88;;;17.40;1.00;;;;;;20848715;28;20069;-85
2024/04/07 08:58:51;;;;;;;2.63;0.88;;;17.50;1.00;;;;;;20848688;28;20029;-87
2024/04/07 09:08:54;;;;;;;4.78;0.70;;;17.80;1.00;;;;;;20852532;28;20033;-86
2024/04/07 09:18:55;;;;;;;3.40;1.00;;;18.00;1.00;;;;;;20850262;28;20430;-83
2024/04/07 09:28:56;;;;;;;3.55;1.13;;;19.10;1.00;;;;;;20848434;28;20051;-82
2024/04/07 09:38:56;;;;;;;4.23;1.27;;;18.90;1.00;;;;;;20856987;28;20128;-82
2024/04/07 09:49:00;;;;;;;2.78;0.70;;;18.60;1.00;;;;;;20857197;28;20098;-84
2024/04/07 09:59:00;;;;;;;3.67;0.98;;;18.70;1.00;;;;;;20863434;28;20084;-85
2024/04/07 10:09:02;;;;;;;5.47;0.70;;;18.50;1.00;;;;;;20843869;28;20071;-86
2024/04/07 10:19:03;;;;;;;5.85;0.90;;;19.10;1.00;;;;;;20860951;28;20546;-85
2024/04/07 10:29:07;;;;;;;3.10;0.70;;;19.20;1.00;;;;;;20863130;28;20160;-86
2024/04/07 10:39:16;;;;;;;2.97;0.50;;;19.40;1.00;;;;;;20862844;28;20052;-84
2024/04/07 10:49:17;;;;;;;2.55;0.50;;;19.60;1.00;;;;;;20853129;28;20112;-82
2024/04/07 10:59:18;;;;;;;3.75;0.55;;;20.10;1.00;;;;;;20857497;28;20033;-83
2024/04/07 11:09:19;;;;;;;2.63;0.60;;;20.60;1.00;;;;;;20852018;28;20042;-82
2024/04/07 11:19:23;;;;;;;2.03;0.57;;;20.50;1.00;;;;;;20853629;28;20039;-81
2024/04/07 11:29:25;;;;;;;3.38;0.57;;;20.90;1.00;;;;;;20851817;28;20103;-83
2024/04/07 11:39:26;;;;;;;1.95;0.43;;;21.10;1.00;;;;;;20855364;28;20038;-84
2024/04/07 11:49:26;;;;;;;2.92;0.50;;;21.20;1.00;;;;;;20846060;28;20086;-84
2024/04/07 11:59:28;;;;;;;3.88;0.55;;;21.30;1.00;;;;;;20851793;28;20042;-84
2024/04/07 12:09:30;;;;;;;2.90;0.65;;;22.00;1.00;;;;;;20837338;28;20025;-83
2024/04/07 12:19:32;;;;;;;3.25;0.45;;;22.30;1.00;;;;;;20838805;28;20139;-82
2024/04/07 12:29:32;;;;;;;4.28;0.50;;;22.60;1.00;;;;;;20840560;28;20290;-81
2024/04/07 12:39:34;;;;;;;2.00;0.40;;;23.10;1.00;;;;;;20827161;28;20049;-82
2024/04/07 12:49:35;;;;;;;2.40;0.50;;;23.00;1.00;;;;;;20836041;28;20516;-83
2024/04/07 12:59:35;;;;;;;2.72;0.50;;;23.30;1.00;;;;;;20851530;28;20456;-82
2024/04/07 13:09:36;;;;;;;2.38;0.68;;;22.80;1.00;;;;;;20855225;28;20073;-82
2024/04/07 13:19:37;;;;;;;1.83;0.40;;;22.60;1.00;;;;;;20853463;28;20072;-78
2024/04/07 13:29:37;;;;;;;1.73;0.47;;;21.60;1.00;;;;;;20851017;28;20033;-78
2024/04/07 13:39:38;;;;;;;2.92;0.57;;;22.10;1.00;;;;;;20846447;28;20064;-78
2024/04/07 13:49:39;;;;;;;2.42;0.65;;;21.90;1.00;;;;;;20842417;28;20087;-78
2024/04/07 13:59:40;;;;;;;2.60;0.60;;;22.00;1.00;;;;;;20852758;28;20045;-78
2024/04/07 14:09:40;;;;;;;2.47;0.40;;;21.90;1.00;;;;;;20864864;28;20036;-78
2024/04/07 14:19:41;;;;;;;1.40;0.40;;;22.40;1.00;;;;;;20860298;28;20041;-78
2024/04/07 14:29:42;;;;;;;2.50;0.60;;;22.30;1.00;;;;;;20861572;28;20044;-81
2024/04/07 14:39:43;;;;;;;2.42;0.57;;;21.40;1.00;;;;;;20859288;28;20052;-81
2024/04/07 14:49:45;;;;;;;3.83;0.70;;;21.40;1.00;;;;;;20856073;28;20299;-81
2024/04/07 14:59:49;;;;;;;2.75;0.68;;;21.10;1.00;;;;;;20861835;28;20051;-81
2024/04/07 15:09:52;;;;;;;2.58;0.70;;;21.40;1.00;;;;;;20845948;28;20788;-81
2024/04/07 15:19:52;;;;;;;2.97;0.73;;;21.00;1.00;;;;;;20869034;28;20041;-81
2024/04/07 15:29:57;;;;;;;2.90;0.70;;;20.60;1.00;;;;;;20865470;28;20052;-81
2024/04/07 15:39:57;;;;;;;3.95;0.80;;;21.00;1.00;;;;;;20868919;28;20049;-82
2024/04/07 15:49:58;;;;;;;2.75;0.88;;;20.90;1.00;;;;;;20858071;28;20067;-83
2024/04/07 15:59:59;;;;;;;2.45;0.77;;;20.40;1.00;;;;;;20860741;28;20373;-84
2024/04/07 16:10:01;;;;;;;2.65;0.60;;;20.10;1.00;;;;;;20860380;28;20166;-83
2024/04/07 16:20:02;;;;;;;2.67;0.90;;;20.00;1.00;;;;;;20849049;28;20037;-84
2024/04/07 16:30:04;;;;;;;4.35;0.80;;;20.00;1.00;;;;;;20853346;28;20036;-84
2024/04/07 16:40:05;;;;;;;5.35;1.10;;;19.90;1.00;;;;;;20850598;28;20532;-84
2024/04/07 16:50:06;;;;;;;1.98;0.63;;;19.70;1.00;;;;;;20849337;28;20072;-82
2024/04/07 17:00:07;;;;;;;3.60;0.93;;;19.60;1.00;;;;;;20848422;28;20057;-83
2024/04/07 17:10:08;;;;;;;4.88;1.52;;;19.60;1.00;;;;;;20847556;28;20033;-82
2024/04/07 17:20:10;;;;;;;6.68;1.58;;;19.20;1.00;;;;;;20842459;28;20493;-82
2024/04/07 17:30:11;;;;;;;7.15;1.35;;;18.30;1.00;;;;;;20849024;28;20640;-84
2024/04/07 17:40:11;;;;;;;12.38;1.92;;;17.60;1.00;;;;;;20847158;28;20456;-82
2024/04/07 17:51:42;;;;;;;5.68;1.40;;;17.00;1.00;;;;;;22826302;25;20495;-43
2024/04/07 18:01:44;;;;;;;8.48;1.55;;;16.60;1.00;;;;;;22821153;25;19997;-42
2024/04/07 18:11:45;;;;;;;10.82;1.98;;;16.40;1.00;;;;;;22821274;25;19994;-42
2024/04/07 18:21:46;;;;;;;8.90;1.92;;;16.30;1.00;;;;;;22805321;25;20017;-42
2024/04/07 18:31:47;;;;;;;7.93;1.58;;;16.10;1.00;;;;;;22753359;25;19997;-42
2024/04/07 18:41:50;;;;;;;5.80;1.23;;;15.90;1.00;;;;;;22757625;25;20084;-42
2024/04/07 18:51:51;;;;;;;9.82;1.73;;;15.70;1.00;;;;;;22750869;25;20341;-42
2024/04/07 19:01:52;;;;;;;11.57;2.00;;;15.50;1.00;;;;;;22684013;25;20327;-42
2024/04/07 19:11:53;;;;;;;9.90;1.90;;;15.50;1.00;;;;;;22692790;25;20013;-42
2024/04/07 19:21:54;;;;;;;11.65;1.70;;;15.50;1.00;;;;;;22672774;25;20002;-42
2024/04/07 19:31:55;;;;;;;7.85;1.50;;;15.30;1.00;;;;;;22706777;25;20565;-42
2024/04/07 19:41:58;;;;;;;7.78;1.85;;;15.20;1.00;;;;;;22718594;25;20319;-42
2024/04/07 19:52:02;;;;;;;10.35;1.95;;;15.20;1.00;;;;;;22708315;25;19997;-43
2024/04/07 20:02:03;;;;;;;12.80;1.83;;;15.00;1.00;;;;;;22707795;25;20356;-42
2024/04/07 20:12:04;;;;;;;6.68;1.52;;;14.90;1.00;;;;;;22701186;25;20342;-42
2024/04/07 20:22:05;;;;;;;10.35;2.00;;;14.80;1.00;;;;;;22708369;25;20001;-42
2024/04/07 20:32:08;;;;;;;9.10;1.70;;;14.90;1.00;;;;;;22712482;25;19998;-42
2024/04/07 20:42:09;;;;;;;7.68;1.50;;;14.80;1.00;;;;;;22704236;25;20074;-42
2024/04/07 20:52:10;;;;;;;4.60;1.27;;;14.80;1.00;;;;;;22729967;26;20002;-42
2024/04/07 21:02:11;;;;;;;8.43;1.85;;;15.00;1.00;;;;;;22709077;25;20503;-43
2024/04/07 21:12:12;;;;;;;9.43;1.95;;;15.00;1.00;;;;;;22717035;25;20691;-42
2024/04/07 21:22:13;;;;;;;6.32;1.70;;;14.70;1.00;;;;;;22703161;25;20418;-43
2024/04/07 21:32:14;;;;;;;4.57;1.55;;;14.50;1.00;;;;;;22708257;26;20041;-43
2024/04/07 21:42:15;;;;;;;5.63;1.42;;;14.40;1.00;;;;;;22719157;25;19998;-42
2024/04/07 21:52:16;;;;;;;4.68;1.45;;;14.50;1.00;;;;;;22710695;26;19997;-43
2024/04/07 22:02:18;;;;;;;4.93;1.60;;;14.40;1.00;;;;;;22709537;25;20042;-43
2024/04/07 22:12:19;;;;;;;4.90;1.40;;;14.30;1.00;;;;;;22712785;26;19998;-42
2024/04/07 22:22:20;;;;;;;11.05;2.00;;;14.20;1.00;;;;;;22706730;26;20005;-42
2024/04/07 22:32:21;;;;;;;8.75;1.45;;;14.20;1.00;;;;;;22701730;25;19998;-42
2024/04/07 22:42:22;;;;;;;8.45;2.15;;;14.10;1.00;;;;;;22716781;25;20330;-42
2024/04/07 22:52:23;;;;;;;14.38;2.65;;;14.00;1.00;;;;;;22717659;25;20012;-42
2024/04/07 23:02:25;;;;;;;14.63;2.10;;;14.00;1.00;;;;;;22713366;25;20006;-42
2024/04/07 23:12:25;;;;;;;7.07;2.00;;;13.90;1.00;;;;;;22723317;25;20010;-42
2024/04/07 23:22:27;;;;;;;9.80;2.00;;;13.80;1.00;;;;;;22708990;25;19998;-42
2024/04/07 23:32:27;;;;;;;8.57;1.98;;;13.70;4.60;;;;;;22697802;25;20078;-43
2024/04/07 23:42:29;;;;;;;10.20;2.15;;;13.80;14.10;;;;;;22694892;25;19998;-42
2024/04/07 23:52:30;;;;;;;10.38;1.98;;;13.80;22.80;;;;;;22709394;25;20415;-42
